sensor_id;sensor_type;location;lat;lon;timestamp;P1;durP1;ratioP1;P2;durP2;ratioP2
19575;SDS011;41589;51.196;7.074;2022-12-18T00:00:41;1.63;;;1.63;;
19575;SDS011;41589;51.196;7.074;2022-12-18T00:05:49;1.47;;;1.47;;
19575;SDS011;41589;51.196;7.074;2022-12-18T00:10:50;1.40;;;1.40;;
19575;SDS011;41589;51.196;7.074;2022-12-18T00:15:50;1.30;;;1.30;;
19575;SDS011;41589;51.196;7.074;2022-12-18T00:20:51;1.47;;;1.47;;
19575;SDS011;41589;51.196;7.074;2022-12-18T00:25:51;1.50;;;1.50;;
19575;SDS011;41589;51.196;7.074;2022-12-18T00:30:59;1.50;;;1.50;;
19575;SDS011;41589;51.196;7.074;2022-12-18T00:36:13;1.53;;;1.53;;
19575;SDS011;41589;51.196;7.074;2022-12-18T00:41:18;1.40;;;1.40;;
19575;SDS011;41589;51.196;7.074;2022-12-18T00:46:38;1.40;;;1.40;;
19575;SDS011;41589;51.196;7.074;2022-12-18T00:51:38;1.50;;;1.50;;
19575;SDS011;41589;51.196;7.074;2022-12-18T00:56:39;1.37;;;1.37;;
19575;SDS011;41589;51.196;7.074;2022-12-18T01:01:39;1.60;;;1.60;;
19575;SDS011;41589;51.196;7.074;2022-12-18T01:06:40;1.70;;;1.70;;
19575;SDS011;41589;51.196;7.074;2022-12-18T01:11:40;1.50;;;1.50;;
19575;SDS011;41589;51.196;7.074;2022-12-18T01:16:41;1.90;;;1.80;;
19575;SDS011;41589;51.196;7.074;2022-12-18T01:21:41;2.50;;;2.40;;
19575;SDS011;41589;51.196;7.074;2022-12-18T01:26:42;2.10;;;2.00;;
19575;SDS011;41589;51.196;7.074;2022-12-18T01:31:42;1.60;;;1.50;;
19575;SDS011;41589;51.196;7.074;2022-12-18T01:36:42;1.83;;;1.83;;
19575;SDS011;41589;51.196;7.074;2022-12-18T01:41:43;2.10;;;2.00;;
19575;SDS011;41589;51.196;7.074;2022-12-18T01:47:03;1.37;;;1.37;;
19575;SDS011;41589;51.196;7.074;2022-12-18T01:52:04;1.60;;;1.60;;
19575;SDS011;41589;51.196;7.074;2022-12-18T01:57:04;1.43;;;1.43;;
19575;SDS011;41589;51.196;7.074;2022-12-18T02:02:05;1.37;;;1.37;;
19575;SDS011;41589;51.196;7.074;2022-12-18T02:07:10;1.30;;;1.30;;
19575;SDS011;41589;51.196;7.074;2022-12-18T02:12:30;1.40;;;1.40;;
19575;SDS011;41589;51.196;7.074;2022-12-18T02:17:43;1.60;;;1.60;;
19575;SDS011;41589;51.196;7.074;2022-12-18T02:28:20;1.40;;;1.40;;
19575;SDS011;41589;51.196;7.074;2022-12-18T02:33:27;1.20;;;1.20;;
19575;SDS011;41589;51.196;7.074;2022-12-18T02:38:30;1.30;;;1.30;;
19575;SDS011;41589;51.196;7.074;2022-12-18T02:43:38;1.57;;;1.57;;
19575;SDS011;41589;51.196;7.074;2022-12-18T02:48:40;1.47;;;1.47;;
19575;SDS011;41589;51.196;7.074;2022-12-18T02:53:48;1.37;;;1.37;;
19575;SDS011;41589;51.196;7.074;2022-12-18T02:58:56;1.20;;;1.20;;
19575;SDS011;41589;51.196;7.074;2022-12-18T03:04:16;1.20;;;1.20;;
19575;SDS011;41589;51.196;7.074;2022-12-18T03:09:22;1.30;;;1.30;;
19575;SDS011;41589;51.196;7.074;2022-12-18T03:14:31;1.60;;;1.60;;
19575;SDS011;41589;51.196;7.074;2022-12-18T03:19:34;1.30;;;1.30;;
19575;SDS011;41589;51.196;7.074;2022-12-18T03:24:36;1.50;;;1.50;;
19575;SDS011;41589;51.196;7.074;2022-12-18T03:29:49;1.40;;;1.40;;
19575;SDS011;41589;51.196;7.074;2022-12-18T03:35:00;1.63;;;1.63;;
19575;SDS011;41589;51.196;7.074;2022-12-18T03:40:07;1.67;;;1.67;;
19575;SDS011;41589;51.196;7.074;2022-12-18T03:50:39;1.40;;;1.40;;
19575;SDS011;41589;51.196;7.074;2022-12-18T03:55:50;1.80;;;1.80;;
19575;SDS011;41589;51.196;7.074;2022-12-18T04:00:52;1.37;;;1.37;;
19575;SDS011;41589;51.196;7.074;2022-12-18T04:05:56;1.40;;;1.40;;
19575;SDS011;41589;51.196;7.074;2022-12-18T04:11:01;1.30;;;1.30;;
19575;SDS011;41589;51.196;7.074;2022-12-18T04:16:02;1.50;;;1.50;;
19575;SDS011;41589;51.196;7.074;2022-12-18T04:21:03;1.60;;;1.60;;
19575;SDS011;41589;51.196;7.074;2022-12-18T04:26:04;1.40;;;1.40;;
19575;SDS011;41589;51.196;7.074;2022-12-18T04:31:25;1.10;;;1.10;;
19575;SDS011;41589;51.196;7.074;2022-12-18T04:36:26;1.50;;;1.50;;
19575;SDS011;41589;51.196;7.074;2022-12-18T04:41:28;1.77;;;1.67;;
19575;SDS011;41589;51.196;7.074;2022-12-18T04:46:29;1.23;;;1.23;;
19575;SDS011;41589;51.196;7.074;2022-12-18T04:51:29;1.70;;;1.70;;
19575;SDS011;41589;51.196;7.074;2022-12-18T04:56:30;1.70;;;1.70;;
19575;SDS011;41589;51.196;7.074;2022-12-18T05:01:31;1.63;;;1.63;;
19575;SDS011;41589;51.196;7.074;2022-12-18T05:06:31;1.10;;;1.10;;
19575;SDS011;41589;51.196;7.074;2022-12-18T05:11:32;1.60;;;1.60;;
19575;SDS011;41589;51.196;7.074;2022-12-18T05:16:32;1.20;;;1.20;;
19575;SDS011;41589;51.196;7.074;2022-12-18T05:21:32;1.20;;;1.20;;
19575;SDS011;41589;51.196;7.074;2022-12-18T05:26:33;1.77;;;1.67;;
19575;SDS011;41589;51.196;7.074;2022-12-18T05:31:33;1.30;;;1.30;;
19575;SDS011;41589;51.196;7.074;2022-12-18T05:36:34;1.60;;;1.60;;
19575;SDS011;41589;51.196;7.074;2022-12-18T05:41:34;1.30;;;1.30;;
19575;SDS011;41589;51.196;7.074;2022-12-18T05:46:34;1.37;;;1.37;;
19575;SDS011;41589;51.196;7.074;2022-12-18T05:51:36;1.30;;;1.30;;
19575;SDS011;41589;51.196;7.074;2022-12-18T05:56:36;1.23;;;1.23;;
19575;SDS011;41589;51.196;7.074;2022-12-18T06:01:37;1.10;;;1.10;;
19575;SDS011;41589;51.196;7.074;2022-12-18T06:06:37;1.17;;;1.17;;
19575;SDS011;41589;51.196;7.074;2022-12-18T06:11:37;1.40;;;1.40;;
19575;SDS011;41589;51.196;7.074;2022-12-18T06:16:38;1.30;;;1.30;;
19575;SDS011;41589;51.196;7.074;2022-12-18T06:21:39;1.40;;;1.40;;
19575;SDS011;41589;51.196;7.074;2022-12-18T06:26:39;1.30;;;1.30;;
19575;SDS011;41589;51.196;7.074;2022-12-18T06:31:40;1.47;;;1.47;;
19575;SDS011;41589;51.196;7.074;2022-12-18T06:36:40;1.10;;;1.10;;
19575;SDS011;41589;51.196;7.074;2022-12-18T06:41:40;1.60;;;1.60;;
19575;SDS011;41589;51.196;7.074;2022-12-18T06:46:41;1.40;;;1.40;;
19575;SDS011;41589;51.196;7.074;2022-12-18T06:51:41;1.30;;;1.30;;
19575;SDS011;41589;51.196;7.074;2022-12-18T06:56:42;1.40;;;1.40;;
19575;SDS011;41589;51.196;7.074;2022-12-18T07:01:42;1.23;;;1.23;;
19575;SDS011;41589;51.196;7.074;2022-12-18T07:06:42;1.63;;;1.63;;
19575;SDS011;41589;51.196;7.074;2022-12-18T07:11:43;3.80;;;3.60;;
19575;SDS011;41589;51.196;7.074;2022-12-18T07:16:43;4.60;;;4.40;;
19575;SDS011;41589;51.196;7.074;2022-12-18T07:21:43;3.47;;;3.27;;
19575;SDS011;41589;51.196;7.074;2022-12-18T07:26:47;2.30;;;2.20;;
19575;SDS011;41589;51.196;7.074;2022-12-18T07:31:47;1.80;;;1.80;;
19575;SDS011;41589;51.196;7.074;2022-12-18T07:36:47;1.37;;;1.37;;
19575;SDS011;41589;51.196;7.074;2022-12-18T07:41:48;1.40;;;1.40;;
19575;SDS011;41589;51.196;7.074;2022-12-18T07:47:08;1.40;;;1.40;;
19575;SDS011;41589;51.196;7.074;2022-12-18T07:52:08;1.47;;;1.47;;
19575;SDS011;41589;51.196;7.074;2022-12-18T07:57:09;1.70;;;1.70;;
19575;SDS011;41589;51.196;7.074;2022-12-18T08:02:10;1.50;;;1.50;;
19575;SDS011;41589;51.196;7.074;2022-12-18T08:07:10;1.50;;;1.50;;
19575;SDS011;41589;51.196;7.074;2022-12-18T08:12:10;1.67;;;1.67;;
19575;SDS011;41589;51.196;7.074;2022-12-18T08:17:11;1.50;;;1.50;;
19575;SDS011;41589;51.196;7.074;2022-12-18T08:22:11;1.50;;;1.50;;
19575;SDS011;41589;51.196;7.074;2022-12-18T08:27:11;1.90;;;1.80;;
19575;SDS011;41589;51.196;7.074;2022-12-18T08:32:12;1.93;;;1.83;;
19575;SDS011;41589;51.196;7.074;2022-12-18T08:37:12;1.60;;;1.60;;
19575;SDS011;41589;51.196;7.074;2022-12-18T08:42:12;1.70;;;1.70;;
19575;SDS011;41589;51.196;7.074;2022-12-18T08:47:32;1.50;;;1.50;;
19575;SDS011;41589;51.196;7.074;2022-12-18T08:52:32;1.50;;;1.50;;
19575;SDS011;41589;51.196;7.074;2022-12-18T08:57:32;1.43;;;1.43;;
19575;SDS011;41589;51.196;7.074;2022-12-18T09:02:33;1.57;;;1.57;;
19575;SDS011;41589;51.196;7.074;2022-12-18T09:07:33;1.60;;;1.60;;
19575;SDS011;41589;51.196;7.074;2022-12-18T09:12:33;1.60;;;1.60;;
19575;SDS011;41589;51.196;7.074;2022-12-18T09:17:34;1.50;;;1.50;;
19575;SDS011;41589;51.196;7.074;2022-12-18T09:22:34;1.70;;;1.70;;
19575;SDS011;41589;51.196;7.074;2022-12-18T09:27:34;1.53;;;1.53;;
19575;SDS011;41589;51.196;7.074;2022-12-18T09:32:35;1.50;;;1.50;;
19575;SDS011;41589;51.196;7.074;2022-12-18T09:37:35;1.80;;;1.80;;
19575;SDS011;41589;51.196;7.074;2022-12-18T09:42:35;1.50;;;1.50;;
19575;SDS011;41589;51.196;7.074;2022-12-18T09:47:36;1.47;;;1.47;;
19575;SDS011;41589;51.196;7.074;2022-12-18T09:52:40;1.30;;;1.30;;
19575;SDS011;41589;51.196;7.074;2022-12-18T09:57:45;1.30;;;1.30;;
19575;SDS011;41589;51.196;7.074;2022-12-18T10:02:51;1.40;;;1.40;;
19575;SDS011;41589;51.196;7.074;2022-12-18T10:13:42;1.40;;;1.40;;
19575;SDS011;41589;51.196;7.074;2022-12-18T10:18:58;1.20;;;1.20;;
19575;SDS011;41589;51.196;7.074;2022-12-18T10:24:28;1.43;;;1.37;;
19575;SDS011;41589;51.196;7.074;2022-12-18T10:29:39;1.43;;;1.43;;
19575;SDS011;41589;51.196;7.074;2022-12-18T10:34:39;1.40;;;1.40;;
19575;SDS011;41589;51.196;7.074;2022-12-18T10:39:40;1.37;;;1.37;;
19575;SDS011;41589;51.196;7.074;2022-12-18T10:44:40;1.33;;;1.33;;
19575;SDS011;41589;51.196;7.074;2022-12-18T10:49:48;1.50;;;1.50;;
19575;SDS011;41589;51.196;7.074;2022-12-18T10:54:53;1.67;;;1.57;;
19575;SDS011;41589;51.196;7.074;2022-12-18T11:05:33;1.40;;;1.40;;
19575;SDS011;41589;51.196;7.074;2022-12-18T11:10:37;1.80;;;1.70;;
19575;SDS011;41589;51.196;7.074;2022-12-18T11:15:40;1.30;;;1.30;;
19575;SDS011;41589;51.196;7.074;2022-12-18T11:20:41;1.40;;;1.40;;
19575;SDS011;41589;51.196;7.074;2022-12-18T11:25:42;1.90;;;1.80;;
19575;SDS011;41589;51.196;7.074;2022-12-18T11:36:25;1.60;;;1.60;;
19575;SDS011;41589;51.196;7.074;2022-12-18T11:41:42;1.57;;;1.57;;
19575;SDS011;41589;51.196;7.074;2022-12-18T11:47:12;1.70;;;1.60;;
19575;SDS011;41589;51.196;7.074;2022-12-18T11:52:18;1.40;;;1.40;;
19575;SDS011;41589;51.196;7.074;2022-12-18T12:02:42;2.13;;;2.03;;
19575;SDS011;41589;51.196;7.074;2022-12-18T12:29:24;2.10;;;2.00;;
19575;SDS011;41589;51.196;7.074;2022-12-18T12:34:36;1.77;;;1.77;;
19575;SDS011;41589;51.196;7.074;2022-12-18T12:39:53;1.90;;;1.80;;
19575;SDS011;41589;51.196;7.074;2022-12-18T12:44:55;1.97;;;1.87;;
19575;SDS011;41589;51.196;7.074;2022-12-18T12:49:59;1.97;;;1.87;;
19575;SDS011;41589;51.196;7.074;2022-12-18T12:55:04;1.80;;;1.70;;
19575;SDS011;41589;51.196;7.074;2022-12-18T13:00:14;1.60;;;1.60;;
19575;SDS011;41589;51.196;7.074;2022-12-18T13:05:20;2.10;;;2.00;;
19575;SDS011;41589;51.196;7.074;2022-12-18T13:10:23;1.80;;;1.80;;
19575;SDS011;41589;51.196;7.074;2022-12-18T13:15:39;2.20;;;2.10;;
19575;SDS011;41589;51.196;7.074;2022-12-18T13:25:52;2.40;;;2.30;;
19575;SDS011;41589;51.196;7.074;2022-12-18T13:31:09;2.33;;;2.23;;
19575;SDS011;41589;51.196;7.074;2022-12-18T13:36:25;1.63;;;1.63;;
19575;SDS011;41589;51.196;7.074;2022-12-18T13:41:27;2.07;;;1.97;;
19575;SDS011;41589;51.196;7.074;2022-12-18T13:46:29;2.33;;;2.23;;
19575;SDS011;41589;51.196;7.074;2022-12-18T13:51:43;2.20;;;2.10;;
19575;SDS011;41589;51.196;7.074;2022-12-18T13:56:48;2.23;;;2.13;;
19575;SDS011;41589;51.196;7.074;2022-12-18T14:06:52;2.00;;;1.90;;
19575;SDS011;41589;51.196;7.074;2022-12-18T14:11:58;2.23;;;2.13;;
19575;SDS011;41589;51.196;7.074;2022-12-18T14:17:18;2.43;;;2.33;;
19575;SDS011;41589;51.196;7.074;2022-12-18T14:22:20;2.13;;;2.03;;
19575;SDS011;41589;51.196;7.074;2022-12-18T14:27:27;2.47;;;2.37;;
19575;SDS011;41589;51.196;7.074;2022-12-18T14:32:27;2.40;;;2.30;;
19575;SDS011;41589;51.196;7.074;2022-12-18T14:37:28;2.20;;;2.10;;
19575;SDS011;41589;51.196;7.074;2022-12-18T14:42:28;2.20;;;2.10;;
19575;SDS011;41589;51.196;7.074;2022-12-18T14:47:29;2.60;;;2.50;;
19575;SDS011;41589;51.196;7.074;2022-12-18T14:52:29;1.87;;;1.80;;
19575;SDS011;41589;51.196;7.074;2022-12-18T14:57:35;2.27;;;2.17;;
19575;SDS011;41589;51.196;7.074;2022-12-18T15:02:37;2.60;;;2.50;;
19575;SDS011;41589;51.196;7.074;2022-12-18T15:07:48;2.80;;;2.70;;
19575;SDS011;41589;51.196;7.074;2022-12-18T15:13:09;2.50;;;2.40;;
19575;SDS011;41589;51.196;7.074;2022-12-18T15:18:23;2.50;;;2.40;;
19575;SDS011;41589;51.196;7.074;2022-12-18T15:23:35;2.70;;;2.60;;
19575;SDS011;41589;51.196;7.074;2022-12-18T15:34:08;2.60;;;2.50;;
19575;SDS011;41589;51.196;7.074;2022-12-18T15:39:12;2.60;;;2.50;;
19575;SDS011;41589;51.196;7.074;2022-12-18T15:44:21;2.93;;;2.83;;
19575;SDS011;41589;51.196;7.074;2022-12-18T15:49:23;2.87;;;2.77;;
19575;SDS011;41589;51.196;7.074;2022-12-18T15:54:23;2.40;;;2.30;;
19575;SDS011;41589;51.196;7.074;2022-12-18T15:59:42;3.10;;;2.97;;
19575;SDS011;41589;51.196;7.074;2022-12-18T16:04:42;2.50;;;2.40;;
19575;SDS011;41589;51.196;7.074;2022-12-18T16:09:43;2.93;;;2.83;;
19575;SDS011;41589;51.196;7.074;2022-12-18T16:14:44;2.97;;;2.87;;
19575;SDS011;41589;51.196;7.074;2022-12-18T16:19:45;3.00;;;2.90;;
19575;SDS011;41589;51.196;7.074;2022-12-18T16:24:45;2.50;;;2.40;;
19575;SDS011;41589;51.196;7.074;2022-12-18T16:29:45;2.50;;;2.40;;
19575;SDS011;41589;51.196;7.074;2022-12-18T16:34:46;2.50;;;2.40;;
19575;SDS011;41589;51.196;7.074;2022-12-18T16:39:46;3.27;;;3.17;;
19575;SDS011;41589;51.196;7.074;2022-12-18T16:44:47;2.80;;;2.70;;
19575;SDS011;41589;51.196;7.074;2022-12-18T16:49:49;2.40;;;2.30;;
19575;SDS011;41589;51.196;7.074;2022-12-18T16:54:51;2.87;;;2.77;;
19575;SDS011;41589;51.196;7.074;2022-12-18T16:59:52;3.07;;;2.97;;
19575;SDS011;41589;51.196;7.074;2022-12-18T17:04:53;3.30;;;3.20;;
19575;SDS011;41589;51.196;7.074;2022-12-18T17:09:55;3.47;;;3.27;;
19575;SDS011;41589;51.196;7.074;2022-12-18T17:14:56;3.33;;;3.23;;
19575;SDS011;41589;51.196;7.074;2022-12-18T17:19:58;3.87;;;3.67;;
19575;SDS011;41589;51.196;7.074;2022-12-18T17:24:59;3.70;;;3.50;;
19575;SDS011;41589;51.196;7.074;2022-12-18T17:29:59;3.77;;;3.57;;
19575;SDS011;41589;51.196;7.074;2022-12-18T17:34:59;3.90;;;3.70;;
19575;SDS011;41589;51.196;7.074;2022-12-18T17:40:00;3.23;;;3.10;;
19575;SDS011;41589;51.196;7.074;2022-12-18T17:45:00;3.33;;;3.20;;
19575;SDS011;41589;51.196;7.074;2022-12-18T17:50:01;3.20;;;3.10;;
19575;SDS011;41589;51.196;7.074;2022-12-18T17:55:01;3.27;;;3.17;;
19575;SDS011;41589;51.196;7.074;2022-12-18T18:00:02;3.17;;;3.07;;
19575;SDS011;41589;51.196;7.074;2022-12-18T18:05:09;3.20;;;3.10;;
19575;SDS011;41589;51.196;7.074;2022-12-18T18:10:11;3.83;;;3.63;;
19575;SDS011;41589;51.196;7.074;2022-12-18T18:15:11;3.03;;;2.93;;
19575;SDS011;41589;51.196;7.074;2022-12-18T18:20:12;3.97;;;3.67;;
19575;SDS011;41589;51.196;7.074;2022-12-18T18:25:14;3.53;;;3.43;;
19575;SDS011;41589;51.196;7.074;2022-12-18T18:30:16;3.80;;;3.60;;
19575;SDS011;41589;51.196;7.074;2022-12-18T18:35:16;2.97;;;2.87;;
19575;SDS011;41589;51.196;7.074;2022-12-18T18:40:16;3.80;;;3.60;;
19575;SDS011;41589;51.196;7.074;2022-12-18T18:45:18;3.97;;;3.77;;
19575;SDS011;41589;51.196;7.074;2022-12-18T18:50:19;3.50;;;3.30;;
19575;SDS011;41589;51.196;7.074;2022-12-18T18:55:19;3.80;;;3.60;;
19575;SDS011;41589;51.196;7.074;2022-12-18T19:00:19;3.67;;;3.47;;
19575;SDS011;41589;51.196;7.074;2022-12-18T19:05:20;3.50;;;3.30;;
19575;SDS011;41589;51.196;7.074;2022-12-18T19:10:21;3.90;;;3.70;;
19575;SDS011;41589;51.196;7.074;2022-12-18T19:15:22;3.87;;;3.67;;
19575;SDS011;41589;51.196;7.074;2022-12-18T19:20:22;3.60;;;3.40;;
19575;SDS011;41589;51.196;7.074;2022-12-18T19:25:23;3.67;;;3.47;;
19575;SDS011;41589;51.196;7.074;2022-12-18T19:30:25;3.10;;;3.00;;
19575;SDS011;41589;51.196;7.074;2022-12-18T19:35:27;3.70;;;3.50;;
19575;SDS011;41589;51.196;7.074;2022-12-18T19:40:28;3.83;;;3.63;;
19575;SDS011;41589;51.196;7.074;2022-12-18T19:45:28;3.33;;;3.13;;
19575;SDS011;41589;51.196;7.074;2022-12-18T19:50:29;3.70;;;3.50;;
19575;SDS011;41589;51.196;7.074;2022-12-18T19:55:29;3.90;;;3.70;;
19575;SDS011;41589;51.196;7.074;2022-12-18T20:00:30;3.50;;;3.30;;
19575;SDS011;41589;51.196;7.074;2022-12-18T20:05:30;3.53;;;3.33;;
19575;SDS011;41589;51.196;7.074;2022-12-18T20:10:31;4.00;;;3.80;;
19575;SDS011;41589;51.196;7.074;2022-12-18T20:15:31;3.73;;;3.53;;
19575;SDS011;41589;51.196;7.074;2022-12-18T20:20:31;3.50;;;3.30;;
19575;SDS011;41589;51.196;7.074;2022-12-18T20:25:32;4.00;;;3.80;;
19575;SDS011;41589;51.196;7.074;2022-12-18T20:30:32;4.00;;;3.80;;
19575;SDS011;41589;51.196;7.074;2022-12-18T20:35:32;3.90;;;3.70;;
19575;SDS011;41589;51.196;7.074;2022-12-18T20:40:33;3.03;;;2.93;;
19575;SDS011;41589;51.196;7.074;2022-12-18T20:45:33;3.50;;;3.30;;
19575;SDS011;41589;51.196;7.074;2022-12-18T20:50:34;4.57;;;4.37;;
19575;SDS011;41589;51.196;7.074;2022-12-18T20:55:39;3.93;;;3.73;;
19575;SDS011;41589;51.196;7.074;2022-12-18T21:00:41;3.60;;;3.40;;
19575;SDS011;41589;51.196;7.074;2022-12-18T21:05:41;4.50;;;4.30;;
19575;SDS011;41589;51.196;7.074;2022-12-18T21:10:41;3.70;;;3.50;;
19575;SDS011;41589;51.196;7.074;2022-12-18T21:15:42;3.67;;;3.47;;
19575;SDS011;41589;51.196;7.074;2022-12-18T21:20:42;3.73;;;3.53;;
19575;SDS011;41589;51.196;7.074;2022-12-18T21:25:43;3.10;;;3.00;;
19575;SDS011;41589;51.196;7.074;2022-12-18T21:30:43;4.10;;;3.90;;
19575;SDS011;41589;51.196;7.074;2022-12-18T21:35:43;3.33;;;3.23;;
19575;SDS011;41589;51.196;7.074;2022-12-18T21:40:44;5.07;;;4.87;;
19575;SDS011;41589;51.196;7.074;2022-12-18T21:45:44;3.77;;;3.57;;
19575;SDS011;41589;51.196;7.074;2022-12-18T21:50:44;4.33;;;4.13;;
19575;SDS011;41589;51.196;7.074;2022-12-18T21:55:45;3.77;;;3.57;;
19575;SDS011;41589;51.196;7.074;2022-12-18T22:00:45;4.30;;;4.10;;
19575;SDS011;41589;51.196;7.074;2022-12-18T22:05:45;3.90;;;3.70;;
19575;SDS011;41589;51.196;7.074;2022-12-18T22:10:46;3.80;;;3.60;;
19575;SDS011;41589;51.196;7.074;2022-12-18T22:15:47;3.67;;;3.47;;
19575;SDS011;41589;51.196;7.074;2022-12-18T22:20:47;3.23;;;3.13;;
19575;SDS011;41589;51.196;7.074;2022-12-18T22:25:47;4.20;;;4.00;;
19575;SDS011;41589;51.196;7.074;2022-12-18T22:30:48;3.80;;;3.60;;
19575;SDS011;41589;51.196;7.074;2022-12-18T22:35:48;4.33;;;4.13;;
19575;SDS011;41589;51.196;7.074;2022-12-18T22:40:48;4.57;;;4.37;;
19575;SDS011;41589;51.196;7.074;2022-12-18T22:45:49;3.80;;;3.60;;
19575;SDS011;41589;51.196;7.074;2022-12-18T22:50:49;3.90;;;3.70;;
19575;SDS011;41589;51.196;7.074;2022-12-18T22:55:49;3.80;;;3.60;;
19575;SDS011;41589;51.196;7.074;2022-12-18T23:00:50;3.90;;;3.70;;
19575;SDS011;41589;51.196;7.074;2022-12-18T23:05:50;3.80;;;3.60;;
19575;SDS011;41589;51.196;7.074;2022-12-18T23:10:51;4.57;;;4.27;;
19575;SDS011;41589;51.196;7.074;2022-12-18T23:15:52;3.87;;;3.67;;
19575;SDS011;41589;51.196;7.074;2022-12-18T23:20:52;4.87;;;4.57;;
19575;SDS011;41589;51.196;7.074;2022-12-18T23:25:58;4.47;;;4.27;;
19575;SDS011;41589;51.196;7.074;2022-12-18T23:31:07;6.03;;;5.73;;
19575;SDS011;41589;51.196;7.074;2022-12-18T23:36:11;5.10;;;4.80;;
19575;SDS011;41589;51.196;7.074;2022-12-18T23:41:13;8.20;;;7.70;;
19575;SDS011;41589;51.196;7.074;2022-12-18T23:51:23;7.30;;;6.80;;
19575;SDS011;41589;51.196;7.074;2022-12-18T23:56:25;9.53;;;8.93;;
